Moss Landing, California
Current Conditions -  °F | °C
As of 11:53 PM on Wednesday 28 Jan 2015 (Local Time) from KWVI Reporting Station
Clear Clear  
Wind Chill: 51°   Ceiling: Unl
Heat Index: 51°   Visibility: 10mi
Dew Point: 43°   Wind: 5mph
Humidity: 74%   Direction: 310°NW
Pressure: 30.17"   Gusts: NA
Location:  36.8°N, 121.79°W
Report Text: KWVI 290753Z AUTO 31004KT 10SM CLR 11/06 A3017 RMK AO2 SLP218 T01060061 402110056
Loading
Personal Weather Stations






























Interactive Weather Map New forecast layout! Learn more

10-Day Weather Forecast

Advertisements
Track Severe Weather on mobile